Time;durP1;ratioP1;P1;durP2;ratioP2;P2;SDS_P1;SDS_P2;PMS_P1;PMS_P2;Temp;Humidity;BMP_temperature;BMP_pressure;BME280_temperature;BME280_humidity;BME280_pressure;Samples;Min_cycle;Max_cycle;Signal;HPM_P1;HPM_P2
2022/06/21 00:01:04;;;;;;;;;;;12.10;99.90;;;;;;5033089;28;20000;-72
2022/06/21 00:03:30;;;;;;;;;;;12.00;99.90;;;;;;5007985;28;20642;-72
2022/06/21 00:05:56;;;;;;;;;;;12.00;99.90;;;;;;5045827;28;19965;-72
2022/06/21 00:08:27;;;;;;;;;;;12.00;99.90;;;;;;5045430;28;19917;-72
2022/06/21 00:10:53;;;;;;;;;;;12.00;99.90;;;;;;5029166;28;20385;-72
2022/06/21 00:13:18;;;;;;;;;;;11.90;99.90;;;;;;5036532;28;19917;-72
2022/06/21 00:15:45;;;;;;;;;;;11.90;99.90;;;;;;5029834;28;20328;-72
2022/06/21 00:18:16;;;;;;;;;;;11.80;99.90;;;;;;5029025;28;19925;-72
2022/06/21 00:20:42;;;;;;;;;;;11.80;99.90;;;;;;5027712;28;20274;-73
2022/06/21 00:23:19;;;;;;;;;;;11.80;99.90;;;;;;5026413;28;19923;-72
2022/06/21 00:25:46;;;;;;;;;;;11.80;99.90;;;;;;5029011;28;20001;-72
2022/06/21 00:28:12;;;;;;;;;;;11.80;99.90;;;;;;5028939;28;20362;-73
2022/06/21 00:30:39;;;;;;;;;;;11.70;99.90;;;;;;5011895;28;19924;-72
2022/06/21 00:33:07;;;;;;;;;;;11.70;99.90;;;;;;5038618;28;19918;-72
2022/06/21 00:35:33;;;;;;;;;;;11.70;99.90;;;;;;5009285;28;19924;-72
2022/06/21 00:37:58;;;;;;;;;;;11.80;99.90;;;;;;5025606;28;20008;-72
2022/06/21 00:40:28;;;;;;;;;;;11.70;99.90;;;;;;5015803;28;19944;-72
2022/06/21 00:42:57;;;;;;;;;;;11.70;99.90;;;;;;5026237;28;19964;-72
2022/06/21 00:45:28;;;;;;;;;;;11.70;99.90;;;;;;5015089;28;20007;-72
2022/06/21 00:47:55;;;;;;;;;;;11.70;99.90;;;;;;5044438;28;19976;-72
2022/06/21 00:50:30;;;;;;;;;;;11.60;99.90;;;;;;5011996;28;20337;-72
2022/06/21 00:53:11;;;;;;;;;;;11.60;99.90;;;;;;5005406;28;19953;-72
2022/06/21 00:55:40;;;;;;;;;;;11.60;99.90;;;;;;5008873;28;20008;-72
2022/06/21 00:58:08;;;;;;;;;;;11.60;99.90;;;;;;5025381;28;19928;-72
2022/06/21 01:00:34;;;;;;;;;;;11.60;99.90;;;;;;5011674;28;20397;-72
2022/06/21 01:03:05;;;;;;;;;;;11.50;99.90;;;;;;5008917;28;19964;-72
2022/06/21 01:05:33;;;;;;;;;;;11.50;99.90;;;;;;5018927;28;19960;-72
2022/06/21 01:07:58;;;;;;;;;;;11.40;99.90;;;;;;5009247;28;19918;-72
2022/06/21 01:10:26;;;;;;;;;;;11.40;99.90;;;;;;5025620;28;19972;-72
2022/06/21 01:12:56;;;;;;;;;;;11.30;99.90;;;;;;5008905;28;20477;-72
2022/06/21 01:15:24;;;;;;;;;;;11.30;99.90;;;;;;5038508;28;20258;-72
2022/06/21 01:17:52;;;;;;;;;;;11.20;99.90;;;;;;5015915;28;19960;-72
2022/06/21 01:20:20;;;;;;;;;;;11.10;99.90;;;;;;5048173;28;20333;-72
2022/06/21 01:23:04;;;;;;;;;;;11.10;99.90;;;;;;5031401;28;20309;-72
2022/06/21 01:26:08;;;;;;;;;;;11.10;99.90;;;;;;4999392;28;20012;-72
2022/06/21 01:28:34;;;;;;;;;;;11.00;99.90;;;;;;4997411;28;19964;-72
2022/06/21 01:31:00;;;;;;;;;;;10.90;99.90;;;;;;4998217;28;19953;-72
2022/06/21 01:33:34;;;;;;;;;;;10.80;99.90;;;;;;4995343;28;19964;-72
2022/06/21 01:36:02;;;;;;;;;;;10.70;99.90;;;;;;5012467;28;19971;-72
2022/06/21 01:38:33;;;;;;;;;;;10.70;99.90;;;;;;5028698;28;20317;-73
2022/06/21 01:41:05;;;;;;;;;;;10.60;99.90;;;;;;5024095;28;19948;-72
2022/06/21 01:43:31;;;;;;;;;;;10.60;99.90;;;;;;5031577;28;19923;-72
2022/06/21 01:46:00;;;;;;;;;;;10.50;99.90;;;;;;5042986;28;19927;-72
2022/06/21 01:48:29;;;;;;;;;;;10.50;99.90;;;;;;5015345;28;20300;-72
2022/06/21 01:50:56;;;;;;;;;;;10.60;99.90;;;;;;5047531;28;19979;-73
2022/06/21 01:53:23;;;;;;;;;;;10.60;99.90;;;;;;5014321;28;19929;-72
2022/06/21 01:55:56;;;;;;;;;;;10.60;99.90;;;;;;5013472;28;20424;-73
2022/06/21 01:58:23;;;;;;;;;;;10.60;99.90;;;;;;5011655;28;19918;-73
2022/06/21 02:00:51;;;;;;;;;;;10.60;99.90;;;;;;5023262;28;19929;-73
2022/06/21 02:03:18;;;;;;;;;;;10.60;99.90;;;;;;5029527;28;19917;-73
2022/06/21 02:05:48;;;;;;;;;;;10.60;99.90;;;;;;5030681;28;19917;-73
2022/06/21 02:08:15;;;;;;;;;;;10.60;99.90;;;;;;5031485;28;20338;-72
2022/06/21 02:10:43;;;;;;;;;;;10.60;99.90;;;;;;5030383;28;20392;-72
2022/06/21 02:13:13;;;;;;;;;;;10.50;99.90;;;;;;5031370;28;20011;-72
2022/06/21 02:16:05;;;;;;;;;;;10.40;99.90;;;;;;5029419;28;20404;-72
2022/06/21 02:18:33;;;;;;;;;;;10.30;99.90;;;;;;5047197;28;20027;-72
2022/06/21 02:21:05;;;;;;;;;;;10.30;99.90;;;;;;5046562;28;19973;-72
2022/06/21 02:23:30;;;;;;;;;;;10.30;99.90;;;;;;5030906;28;19961;-73
2022/06/21 02:25:56;;;;;;;;;;;10.30;99.90;;;;;;5011848;28;20011;-72
2022/06/21 02:28:23;;;;;;;;;;;10.30;99.90;;;;;;5011080;28;20053;-73
2022/06/21 02:30:50;;;;;;;;;;;10.20;99.90;;;;;;5038337;28;19997;-72
2022/06/21 02:33:20;;;;;;;;;;;10.20;99.90;;;;;;5013503;28;19957;-72
2022/06/21 02:35:49;;;;;;;;;;;10.10;99.90;;;;;;5010829;28;19921;-73
2022/06/21 02:38:17;;;;;;;;;;;10.00;99.90;;;;;;5027650;28;19918;-72
2022/06/21 02:40:45;;;;;;;;;;;10.00;99.90;;;;;;5004383;28;19921;-72
2022/06/21 02:43:14;;;;;;;;;;;10.00;99.90;;;;;;5030400;28;20018;-73
2022/06/21 02:45:47;;;;;;;;;;;10.00;99.90;;;;;;5025018;28;19960;-72
2022/06/21 02:48:15;;;;;;;;;;;10.00;99.90;;;;;;5013935;28;20366;-72
2022/06/21 02:50:42;;;;;;;;;;;9.90;99.90;;;;;;5013279;28;20013;-72
2022/06/21 02:53:14;;;;;;;;;;;9.90;99.90;;;;;;5029709;28;20381;-72
2022/06/21 02:55:43;;;;;;;;;;;9.80;99.90;;;;;;5046417;28;19968;-72
2022/06/21 02:58:20;;;;;;;;;;;9.90;99.90;;;;;;5030242;28;20409;-72
2022/06/21 03:00:46;;;;;;;;;;;9.80;99.90;;;;;;5027554;28;20572;-72
2022/06/21 03:03:16;;;;;;;;;;;9.80;99.90;;;;;;5020001;28;19983;-72
2022/06/21 03:05:41;;;;;;;;;;;9.80;99.90;;;;;;4996129;28;19923;-72
2022/06/21 03:08:07;;;;;;;;;;;9.80;99.90;;;;;;4999170;28;19918;-72
2022/06/21 03:10:37;;;;;;;;;;;9.80;99.90;;;;;;5026054;28;19917;-72
2022/06/21 03:13:15;;;;;;;;;;;9.80;99.90;;;;;;5045745;28;19921;-72
2022/06/21 03:15:41;;;;;;;;;;;9.80;99.90;;;;;;5022660;28;19964;-72
2022/06/21 03:18:09;;;;;;;;;;;9.90;99.90;;;;;;5013522;28;19921;-72
2022/06/21 03:20:34;;;;;;;;;;;9.80;99.90;;;;;;5044822;28;19922;-72
2022/06/21 03:23:01;;;;;;;;;;;9.80;99.90;;;;;;5030176;28;19924;-72
2022/06/21 03:25:29;;;;;;;;;;;9.70;99.90;;;;;;5000751;28;19921;-72
2022/06/21 03:27:57;;;;;;;;;;;9.70;99.90;;;;;;4993851;28;19964;-72
2022/06/21 03:30:41;;;;;;;;;;;9.80;99.90;;;;;;5033093;28;20286;-72
2022/06/21 03:33:06;;;;;;;;;;;9.80;99.90;;;;;;5043581;28;20011;-72
2022/06/21 03:35:33;;;;;;;;;;;9.80;99.90;;;;;;5026506;28;20431;-72
2022/06/21 03:37:59;;;;;;;;;;;9.80;99.90;;;;;;5007054;28;20286;-72
2022/06/21 03:43:12;;;;;;;;;;;9.80;99.90;;;;;;4993361;28;19917;-72
2022/06/21 03:45:40;;;;;;;;;;;9.80;99.90;;;;;;5010334;28;20057;-72
2022/06/21 03:48:18;;;;;;;;;;;9.80;99.90;;;;;;5029374;28;19928;-72
2022/06/21 03:50:53;;;;;;;;;;;9.80;99.90;;;;;;5045250;28;20052;-72
2022/06/21 03:53:22;;;;;;;;;;;9.80;99.90;;;;;;5011832;28;19924;-72
2022/06/21 03:55:51;;;;;;;;;;;9.70;99.90;;;;;;5013066;28;19924;-72
2022/06/21 03:58:22;;;;;;;;;;;9.70;99.90;;;;;;5045571;28;19922;-72
2022/06/21 04:01:07;;;;;;;;;;;9.70;99.90;;;;;;5029179;28;20374;-72
2022/06/21 04:03:38;;;;;;;;;;;9.70;99.90;;;;;;5027161;28;19924;-72
2022/06/21 04:06:10;;;;;;;;;;;9.70;99.90;;;;;;5043100;28;19917;-72
2022/06/21 04:08:39;;;;;;;;;;;9.70;99.90;;;;;;5045661;28;19925;-72
2022/06/21 04:11:09;;;;;;;;;;;9.60;99.90;;;;;;5011648;28;20470;-72
2022/06/21 04:13:38;;;;;;;;;;;9.60;99.90;;;;;;5012772;28;19921;-72
2022/06/21 04:16:12;;;;;;;;;;;9.60;99.90;;;;;;5029136;28;19918;-72
2022/06/21 04:18:41;;;;;;;;;;;9.70;99.90;;;;;;5025344;28;19968;-72
2022/06/21 04:21:06;;;;;;;;;;;9.70;99.90;;;;;;5038756;28;19921;-72
2022/06/21 04:23:36;;;;;;;;;;;9.70;99.90;;;;;;5045869;28;19940;-72
2022/06/21 04:26:06;;;;;;;;;;;9.70;99.90;;;;;;4995140;28;19971;-72
2022/06/21 04:28:36;;;;;;;;;;;9.70;99.90;;;;;;5012532;28;19917;-72
2022/06/21 04:31:14;;;;;;;;;;;9.70;99.90;;;;;;5012411;28;19928;-72
2022/06/21 04:33:44;;;;;;;;;;;9.70;99.90;;;;;;5005231;28;19918;-71
2022/06/21 04:36:18;;;;;;;;;;;9.80;99.90;;;;;;5044724;28;19917;-71
2022/06/21 04:38:52;;;;;;;;;;;9.80;99.90;;;;;;5030603;28;19968;-71
2022/06/21 04:41:41;;;;;;;;;;;9.90;99.90;;;;;;5021013;28;19921;-72
2022/06/21 04:44:12;;;;;;;;;;;9.90;99.90;;;;;;5018574;28;19972;-72
2022/06/21 04:46:40;;;;;;;;;;;10.00;99.90;;;;;;5028056;28;19917;-72
2022/06/21 04:49:09;;;;;;;;;;;10.10;99.90;;;;;;5013405;28;19928;-72
2022/06/21 04:51:47;;;;;;;;;;;10.20;99.90;;;;;;5030472;28;19965;-72
2022/06/21 04:54:17;;;;;;;;;;;10.30;99.90;;;;;;5014046;28;19925;-72
2022/06/21 04:57:09;;;;;;;;;;;10.30;99.90;;;;;;5015915;28;20370;-72
2022/06/21 04:59:40;;;;;;;;;;;10.40;99.90;;;;;;5047025;28;19928;-72
2022/06/21 05:02:11;;;;;;;;;;;10.40;99.90;;;;;;5045081;28;19924;-72
2022/06/21 05:04:38;;;;;;;;;;;10.40;99.90;;;;;;5012727;28;20335;-72
2022/06/21 05:07:06;;;;;;;;;;;10.50;99.90;;;;;;5048555;28;19917;-72
2022/06/21 05:09:32;;;;;;;;;;;10.50;99.90;;;;;;5014706;28;20075;-72
2022/06/21 05:12:04;;;;;;;;;;;10.50;99.90;;;;;;5007980;28;19917;-72
2022/06/21 05:14:33;;;;;;;;;;;10.50;99.90;;;;;;5012933;28;19924;-72
2022/06/21 05:16:58;;;;;;;;;;;10.60;99.90;;;;;;5047630;28;20000;-72
2022/06/21 05:19:35;;;;;;;;;;;10.70;99.90;;;;;;5030739;28;20342;-72
2022/06/21 05:22:05;;;;;;;;;;;10.80;99.90;;;;;;5037205;28;19917;-73
2022/06/21 05:24:31;;;;;;;;;;;10.90;99.90;;;;;;5029927;28;20366;-72
2022/06/21 05:27:09;;;;;;;;;;;11.10;99.90;;;;;;5031857;28;19980;-73
2022/06/21 05:29:47;;;;;;;;;;;11.20;99.90;;;;;;5030213;28;19925;-73
2022/06/21 05:32:16;;;;;;;;;;;11.40;99.90;;;;;;5047091;28;19928;-73
2022/06/21 05:34:44;;;;;;;;;;;11.40;99.90;;;;;;5023252;28;19924;-73
2022/06/21 05:37:13;;;;;;;;;;;11.60;99.90;;;;;;5028440;28;20348;-73
2022/06/21 05:39:41;;;;;;;;;;;11.70;99.90;;;;;;5025672;28;19984;-73
2022/06/21 05:42:11;;;;;;;;;;;11.90;99.90;;;;;;5037781;28;19927;-73
2022/06/21 05:44:43;;;;;;;;;;;12.00;99.90;;;;;;5028592;28;19964;-73
2022/06/21 05:47:17;;;;;;;;;;;12.10;99.90;;;;;;5016873;28;19940;-73
2022/06/21 05:49:43;;;;;;;;;;;12.20;99.90;;;;;;5019936;28;20060;-73
2022/06/21 05:52:32;;;;;;;;;;;12.40;99.90;;;;;;5038387;28;19957;-73
2022/06/21 05:55:03;;;;;;;;;;;12.50;99.90;;;;;;5042413;28;19918;-70
2022/06/21 05:57:37;;;;;;;;;;;12.80;99.90;;;;;;5036839;28;19917;-73
2022/06/21 06:00:03;;;;;;;;;;;13.00;99.90;;;;;;5021535;28;19976;-72
2022/06/21 06:02:29;;;;;;;;;;;13.10;99.90;;;;;;5036812;28;19922;-73
2022/06/21 06:05:00;;;;;;;;;;;13.30;99.90;;;;;;5032052;28;19917;-72
2022/06/21 06:07:27;;;;;;;;;;;13.50;99.90;;;;;;5013932;28;20335;-72
2022/06/21 06:09:56;;;;;;;;;;;13.70;99.90;;;;;;5012128;28;19918;-72
2022/06/21 06:12:23;;;;;;;;;;;13.80;99.90;;;;;;5014054;28;19917;-72
2022/06/21 06:15:01;;;;;;;;;;;14.00;99.90;;;;;;5012724;28;19917;-72
2022/06/21 06:17:46;;;;;;;;;;;14.20;99.90;;;;;;5003842;28;19941;-73
2022/06/21 06:20:14;;;;;;;;;;;14.50;99.90;;;;;;5023247;28;19917;-72
2022/06/21 06:22:42;;;;;;;;;;;14.60;99.90;;;;;;5036395;28;20378;-72
2022/06/21 06:25:15;;;;;;;;;;;14.60;99.90;;;;;;5018317;28;19922;-72
2022/06/21 06:28:00;;;;;;;;;;;14.60;99.90;;;;;;5012924;28;20336;-72
2022/06/21 06:30:39;;;;;;;;;;;14.70;99.90;;;;;;4994494;28;19926;-72
2022/06/21 06:33:04;;;;;;;;;;;14.70;99.90;;;;;;5021913;28;20028;-72
2022/06/21 06:35:30;;;;;;;;;;;14.60;99.90;;;;;;5014203;28;19936;-72
2022/06/21 06:37:55;;;;;;;;;;;14.60;99.90;;;;;;5019737;28;19984;-72
2022/06/21 06:40:37;;;;;;;;;;;14.60;99.90;;;;;;5037285;28;19925;-72
2022/06/21 06:43:24;;;;;;;;;;;14.70;99.90;;;;;;5030526;28;20388;-72
2022/06/21 06:45:50;;;;;;;;;;;14.80;99.90;;;;;;5034517;28;19924;-72
2022/06/21 06:48:22;;;;;;;;;;;14.90;99.90;;;;;;5030332;28;19917;-72
2022/06/21 06:51:07;;;;;;;;;;;15.10;99.90;;;;;;5031194;28;19924;-72
2022/06/21 06:53:42;;;;;;;;;;;15.20;99.90;;;;;;4992229;28;19924;-72
2022/06/21 06:56:15;;;;;;;;;;;15.30;99.90;;;;;;5010624;28;19918;-72
2022/06/21 06:58:40;;;;;;;;;;;15.50;99.90;;;;;;5027234;28;20251;-72
2022/06/21 07:01:18;;;;;;;;;;;15.60;99.90;;;;;;5024704;28;19972;-72
2022/06/21 07:03:47;;;;;;;;;;;15.60;99.90;;;;;;5009725;28;19917;-72
2022/06/21 07:06:17;;;;;;;;;;;15.80;99.90;;;;;;5046550;28;19917;-72
2022/06/21 07:08:47;;;;;;;;;;;15.80;99.90;;;;;;5029091;28;19976;-72
2022/06/21 07:11:17;;;;;;;;;;;15.90;99.90;;;;;;5028291;28;19917;-72
2022/06/21 07:13:42;;;;;;;;;;;16.00;99.90;;;;;;5044555;28;20387;-70
2022/06/21 07:16:11;;;;;;;;;;;15.90;99.90;;;;;;5028558;28;19925;-71
2022/06/21 07:18:42;;;;;;;;;;;15.90;99.90;;;;;;5029781;28;19918;-72
2022/06/21 07:21:09;;;;;;;;;;;15.80;99.90;;;;;;5011960;28;20330;-72
2022/06/21 07:23:34;;;;;;;;;;;15.70;99.90;;;;;;5015759;28;19918;-72
2022/06/21 07:26:04;;;;;;;;;;;15.60;99.90;;;;;;5012511;28;19972;-72
2022/06/21 07:28:46;;;;;;;;;;;15.80;99.90;;;;;;5028835;28;19924;-72
2022/06/21 07:31:15;;;;;;;;;;;15.90;99.90;;;;;;5021924;28;19921;-72
2022/06/21 07:33:44;;;;;;;;;;;16.00;99.90;;;;;;5012675;28;20408;-72
2022/06/21 07:36:11;;;;;;;;;;;16.20;99.90;;;;;;5009392;28;19945;-71
2022/06/21 07:38:56;;;;;;;;;;;16.30;99.90;;;;;;4993773;28;19925;-72
2022/06/21 07:41:31;;;;;;;;;;;16.40;99.90;;;;;;5030562;28;19980;-72
2022/06/21 07:43:58;;;;;;;;;;;16.40;99.90;;;;;;5043898;28;20436;-72
2022/06/21 07:46:32;;;;;;;;;;;16.50;99.90;;;;;;5011040;28;19925;-71
2022/06/21 07:49:27;;;;;;;;;;;16.40;99.90;;;;;;5025765;28;19974;-71
2022/06/21 07:51:57;;;;;;;;;;;16.40;99.90;;;;;;5002586;28;20370;-71
2022/06/21 07:54:24;;;;;;;;;;;16.50;99.90;;;;;;5027273;28;20381;-71
2022/06/21 07:56:59;;;;;;;;;;;16.60;99.90;;;;;;5011267;28;19917;-72
2022/06/21 07:59:25;;;;;;;;;;;16.70;99.90;;;;;;5032522;28;19928;-71
2022/06/21 08:07:35;;;;;;;;;;;17.00;99.90;;;;;;5009254;28;19917;-72
2022/06/21 08:10:04;;;;;;;;;;;17.00;99.90;;;;;;5010561;28;19924;-71
2022/06/21 08:12:30;;;;;;;;;;;17.10;99.90;;;;;;5044420;28;19917;-72
2022/06/21 08:14:55;;;;;;;;;;;17.10;99.90;;;;;;5009819;28;19995;-72
2022/06/21 08:17:30;;;;;;;;;;;17.20;99.90;;;;;;5029588;28;19972;-71
2022/06/21 08:19:56;;;;;;;;;;;17.20;99.90;;;;;;5010885;28;19983;-72
2022/06/21 08:22:35;;;;;;;;;;;17.30;99.90;;;;;;5044271;28;19917;-71
2022/06/21 08:25:13;;;;;;;;;;;17.40;99.90;;;;;;5029126;28;19923;-72
2022/06/21 08:27:42;;;;;;;;;;;17.60;99.90;;;;;;5032385;28;20003;-72
2022/06/21 08:30:11;;;;;;;;;;;17.70;99.90;;;;;;5030634;28;20361;-72
2022/06/21 08:32:46;;;;;;;;;;;17.60;99.90;;;;;;5015533;28;19917;-72
2022/06/21 08:35:16;;;;;;;;;;;17.60;99.90;;;;;;5038083;28;20013;-72
2022/06/21 08:37:44;;;;;;;;;;;17.50;99.90;;;;;;4992753;28;20350;-71
2022/06/21 08:40:19;;;;;;;;;;;17.40;99.90;;;;;;5047946;28;19925;-71
2022/06/21 08:42:45;;;;;;;;;;;17.40;99.90;;;;;;5047910;28;19921;-72
2022/06/21 08:48:13;;;;;;;;;;;17.60;99.90;;;;;;4999914;28;19918;-72
2022/06/21 08:50:48;;;;;;;;;;;17.70;99.90;;;;;;5003482;28;19971;-72
2022/06/21 08:53:27;;;;;;;;;;;17.80;99.90;;;;;;5031245;28;19917;-72
2022/06/21 08:56:04;;;;;;;;;;;17.90;99.90;;;;;;5049228;28;19976;-72
2022/06/21 08:58:41;;;;;;;;;;;17.80;99.90;;;;;;5016930;28;20374;-72
2022/06/21 09:01:10;;;;;;;;;;;17.90;99.90;;;;;;5031085;28;19925;-72
2022/06/21 09:03:46;;;;;;;;;;;17.80;99.90;;;;;;5048339;28;20447;-71
2022/06/21 09:06:15;;;;;;;;;;;17.70;99.90;;;;;;5013436;28;19923;-72
2022/06/21 09:08:56;;;;;;;;;;;17.60;99.90;;;;;;5029820;28;19963;-72
2022/06/21 09:11:26;;;;;;;;;;;17.60;99.90;;;;;;5015107;28;19925;-72
2022/06/21 09:14:01;;;;;;;;;;;17.90;99.90;;;;;;5031914;28;19939;-72
2022/06/21 09:16:26;;;;;;;;;;;18.00;99.90;;;;;;5037823;28;20285;-72
2022/06/21 09:19:08;;;;;;;;;;;18.20;99.90;;;;;;5044015;28;19921;-71
2022/06/21 09:22:00;;;;;;;;;;;18.30;99.90;;;;;;5031290;28;19930;-72
2022/06/21 09:24:39;;;;;;;;;;;18.50;99.90;;;;;;4998203;28;19917;-72
2022/06/21 09:27:09;;;;;;;;;;;18.60;99.90;;;;;;5044360;28;19917;-72
2022/06/21 09:29:58;;;;;;;;;;;18.70;99.90;;;;;;5012713;28;20020;-72
2022/06/21 09:32:48;;;;;;;;;;;18.80;99.90;;;;;;5017427;28;20440;-72
2022/06/21 09:35:31;;;;;;;;;;;18.70;99.90;;;;;;5028623;28;20419;-72
2022/06/21 09:38:15;;;;;;;;;;;18.60;99.90;;;;;;5039973;28;19921;-72
2022/06/21 09:40:47;;;;;;;;;;;18.20;99.90;;;;;;5014088;28;19975;-72
2022/06/21 09:43:15;;;;;;;;;;;18.40;99.90;;;;;;5014303;28;20338;-72
2022/06/21 09:45:46;;;;;;;;;;;18.40;99.90;;;;;;5028177;28;19924;-72
2022/06/21 09:48:21;;;;;;;;;;;18.50;99.90;;;;;;5030518;28;20015;-72
2022/06/21 09:50:58;;;;;;;;;;;18.60;99.90;;;;;;5045994;28;19967;-72
2022/06/21 09:53:31;;;;;;;;;;;18.70;99.90;;;;;;5029761;28;19917;-72
2022/06/21 09:56:03;;;;;;;;;;;18.90;99.90;;;;;;5046867;28;19928;-72
2022/06/21 09:58:38;;;;;;;;;;;19.00;99.90;;;;;;5010511;28;19918;-72
2022/06/21 10:01:16;;;;;;;;;;;19.20;99.90;;;;;;5046186;28;19975;-72
2022/06/21 10:04:06;;;;;;;;;;;19.30;99.90;;;;;;5030577;28;19997;-72
2022/06/21 10:06:31;;;;;;;;;;;19.40;99.90;;;;;;5025676;28;19917;-72
2022/06/21 10:09:20;;;;;;;;;;;19.60;99.90;;;;;;5046851;28;19924;-72
2022/06/21 10:12:07;;;;;;;;;;;19.70;99.90;;;;;;5011662;28;20016;-72
2022/06/21 10:14:46;;;;;;;;;;;19.50;99.90;;;;;;5027254;28;20015;-71
2022/06/21 10:17:13;;;;;;;;;;;19.60;99.90;;;;;;5029049;28;19960;-71
2022/06/21 10:19:51;;;;;;;;;;;19.80;99.90;;;;;;5011656;28;20007;-72
2022/06/21 10:22:26;;;;;;;;;;;19.70;99.90;;;;;;5046107;28;20390;-72
2022/06/21 10:25:16;;;;;;;;;;;19.80;99.90;;;;;;5013476;28;19940;-72
2022/06/21 10:27:51;;;;;;;;;;;19.90;99.90;;;;;;5013615;28;19917;-80
2022/06/21 10:30:22;;;;;;;;;;;20.00;99.90;;;;;;5028548;28;19951;-75
2022/06/21 10:32:48;;;;;;;;;;;20.10;99.90;;;;;;5041238;28;19917;-75
2022/06/21 10:35:13;;;;;;;;;;;20.00;99.90;;;;;;5047040;28;19971;-75
2022/06/21 10:37:56;;;;;;;;;;;19.90;99.70;;;;;;4996697;28;19917;-75
2022/06/21 10:40:37;;;;;;;;;;;20.00;99.90;;;;;;5042097;28;19967;-74
2022/06/21 10:43:03;;;;;;;;;;;19.80;99.90;;;;;;5045280;28;20362;-74
2022/06/21 10:45:35;;;;;;;;;;;19.70;99.90;;;;;;5032822;28;19925;-74
2022/06/21 10:48:10;;;;;;;;;;;19.60;99.90;;;;;;5020548;28;19917;-74
2022/06/21 10:50:41;;;;;;;;;;;19.50;99.90;;;;;;5008595;28;19917;-75
2022/06/21 10:53:13;;;;;;;;;;;19.30;99.90;;;;;;5005325;28;19974;-74
2022/06/21 10:55:46;;;;;;;;;;;19.40;99.90;;;;;;5027997;28;19972;-75
2022/06/21 10:58:21;;;;;;;;;;;19.70;99.90;;;;;;5031584;28;20281;-75
2022/06/21 11:01:26;;;;;;;;;;;19.80;99.90;;;;;;5022997;28;19926;-75
2022/06/21 11:04:00;;;;;;;;;;;19.90;99.90;;;;;;5004819;28;19921;-74
2022/06/21 11:06:36;;;;;;;;;;;20.20;99.90;;;;;;5030772;28;20049;-74
2022/06/21 11:09:05;;;;;;;;;;;20.20;99.90;;;;;;5000512;28;19967;-75
2022/06/21 11:11:40;;;;;;;;;;;20.20;99.90;;;;;;5012956;28;19956;-75
2022/06/21 11:14:21;;;;;;;;;;;20.40;99.90;;;;;;5041121;28;20415;-75
2022/06/21 11:16:56;;;;;;;;;;;20.30;99.50;;;;;;5007683;28;19925;-75
2022/06/21 11:19:32;;;;;;;;;;;20.50;99.90;;;;;;4992675;28;19918;-75
2022/06/21 11:21:58;;;;;;;;;;;20.60;99.90;;;;;;5010848;28;20325;-76
2022/06/21 11:24:42;;;;;;;;;;;20.70;99.90;;;;;;5039048;28;19924;-75
2022/06/21 11:27:15;;;;;;;;;;;20.50;97.50;;;;;;5005272;28;19917;-75
2022/06/21 11:29:55;;;;;;;;;;;20.30;98.90;;;;;;5045806;28;19924;-74
2022/06/21 11:32:20;;;;;;;;;;;20.40;99.90;;;;;;5013044;28;19918;-74
2022/06/21 11:34:51;;;;;;;;;;;20.50;99.90;;;;;;5007456;28;20000;-74
2022/06/21 11:37:25;;;;;;;;;;;20.50;99.90;;;;;;5045635;28;19966;-74
2022/06/21 11:39:50;;;;;;;;;;;20.60;99.90;;;;;;5027794;28;20005;-75
2022/06/21 11:42:45;;;;;;;;;;;20.50;98.40;;;;;;5013659;28;20390;-75
2022/06/21 11:45:14;;;;;;;;;;;20.40;99.90;;;;;;4986848;28;19921;-75
2022/06/21 11:47:39;;;;;;;;;;;20.50;99.90;;;;;;5027760;28;19917;-75
2022/06/21 11:50:11;;;;;;;;;;;20.50;99.50;;;;;;4995943;28;19925;-74
2022/06/21 11:52:54;;;;;;;;;;;20.40;99.90;;;;;;5009600;28;19921;-74
2022/06/21 11:55:20;;;;;;;;;;;20.60;99.90;;;;;;5009412;28;19917;-75
2022/06/21 11:57:51;;;;;;;;;;;20.60;99.90;;;;;;5045902;28;19928;-74
2022/06/21 12:00:40;;;;;;;;;;;20.50;98.20;;;;;;5025527;28;19925;-74
2022/06/21 12:03:10;;;;;;;;;;;20.40;98.40;;;;;;4995810;28;20433;-74
2022/06/21 12:05:53;;;;;;;;;;;20.50;99.90;;;;;;5036376;28;20378;-74
2022/06/21 12:08:22;;;;;;;;;;;20.60;99.90;;;;;;5012138;28;19917;-74
2022/06/21 12:10:55;;;;;;;;;;;20.50;99.90;;;;;;4997239;28;19925;-75
2022/06/21 12:13:32;;;;;;;;;;;20.60;99.90;;;;;;5037817;28;19957;-75
2022/06/21 12:15:58;;;;;;;;;;;20.60;99.90;;;;;;5046742;28;19917;-75
2022/06/21 12:18:25;;;;;;;;;;;20.60;99.90;;;;;;5013955;28;19917;-75
2022/06/21 12:21:00;;;;;;;;;;;20.70;99.90;;;;;;5035849;28;19921;-75
2022/06/21 12:23:28;;;;;;;;;;;20.60;99.70;;;;;;5024064;28;19917;-75
2022/06/21 12:25:54;;;;;;;;;;;20.70;99.90;;;;;;5040457;28;19917;-77
2022/06/21 12:28:21;;;;;;;;;;;20.80;99.90;;;;;;4995497;28;19944;-73
2022/06/21 12:30:47;;;;;;;;;;;20.80;98.80;;;;;;5011489;28;19924;-72
2022/06/21 12:33:14;;;;;;;;;;;20.90;99.70;;;;;;5010940;28;19917;-73
2022/06/21 12:35:47;;;;;;;;;;;20.80;99.60;;;;;;5044966;28;19921;-74
2022/06/21 12:38:15;;;;;;;;;;;20.90;99.70;;;;;;5028265;28;19918;-74
2022/06/21 12:40:53;;;;;;;;;;;20.90;99.80;;;;;;5025866;28;20398;-77
2022/06/21 12:43:30;;;;;;;;;;;20.90;99.90;;;;;;5036169;28;20005;-77
2022/06/21 12:45:56;;;;;;;;;;;20.80;99.40;;;;;;5022989;28;20344;-77
2022/06/21 12:48:34;;;;;;;;;;;20.80;99.40;;;;;;5044508;28;19943;-77
2022/06/21 12:51:11;;;;;;;;;;;20.90;99.90;;;;;;5045110;28;19940;-76
2022/06/21 12:53:49;;;;;;;;;;;21.00;99.90;;;;;;5027822;28;19918;-77
2022/06/21 12:56:31;;;;;;;;;;;21.00;99.90;;;;;;5009440;28;19921;-77
2022/06/21 12:59:16;;;;;;;;;;;21.00;99.90;;;;;;5011396;28;20433;-77
2022/06/21 13:02:11;;;;;;;;;;;20.90;97.70;;;;;;5010739;28;19971;-76
2022/06/21 13:04:40;;;;;;;;;;;20.90;97.80;;;;;;5023006;28;20397;-77
2022/06/21 13:07:16;;;;;;;;;;;20.90;99.90;;;;;;5013275;28;19960;-77
2022/06/21 13:09:42;;;;;;;;;;;20.80;98.20;;;;;;5043532;28;19924;-77
2022/06/21 13:12:18;;;;;;;;;;;20.80;99.90;;;;;;5013265;28;20008;-77
2022/06/21 13:14:50;;;;;;;;;;;20.70;99.90;;;;;;5031310;28;19964;-74
2022/06/21 13:17:25;;;;;;;;;;;20.70;99.90;;;;;;5012315;28;19922;-74
2022/06/21 13:20:12;;;;;;;;;;;20.70;99.90;;;;;;5022545;28;19924;-73
2022/06/21 13:22:49;;;;;;;;;;;20.70;99.90;;;;;;5015688;28;19948;-72
2022/06/21 13:25:14;;;;;;;;;;;20.70;97.30;;;;;;5006259;28;19917;-71
2022/06/21 13:27:59;;;;;;;;;;;20.70;99.40;;;;;;5014944;28;19924;-71
2022/06/21 13:30:30;;;;;;;;;;;20.70;99.60;;;;;;5029741;28;19924;-72
2022/06/21 13:33:10;;;;;;;;;;;20.60;99.90;;;;;;5048132;28;20313;-71
2022/06/21 13:35:47;;;;;;;;;;;20.70;99.90;;;;;;5046937;28;20282;-74
2022/06/21 13:38:24;;;;;;;;;;;20.80;99.90;;;;;;5025899;28;19923;-74
2022/06/21 13:40:55;;;;;;;;;;;20.90;98.60;;;;;;5009818;28;19922;-74
2022/06/21 13:43:32;;;;;;;;;;;21.00;99.90;;;;;;5026334;28;19932;-74
2022/06/21 13:46:12;;;;;;;;;;;21.00;99.50;;;;;;5023087;28;20015;-74
2022/06/21 13:48:44;;;;;;;;;;;21.10;99.50;;;;;;5024792;28;20293;-74
2022/06/21 13:51:12;;;;;;;;;;;21.10;99.90;;;;;;5042506;28;19918;-74
2022/06/21 13:53:41;;;;;;;;;;;21.10;98.60;;;;;;5007215;28;19917;-74
2022/06/21 13:56:25;;;;;;;;;;;21.10;99.00;;;;;;5023846;28;20352;-74
2022/06/21 13:59:01;;;;;;;;;;;21.00;99.40;;;;;;5006426;28;19917;-73
2022/06/21 14:01:46;;;;;;;;;;;21.00;95.10;;;;;;5023499;28;19921;-72
2022/06/21 14:04:18;;;;;;;;;;;20.90;99.20;;;;;;5022617;28;19925;-72
2022/06/21 14:07:02;;;;;;;;;;;20.90;98.70;;;;;;5028359;28;19917;-73
2022/06/21 14:09:32;;;;;;;;;;;20.80;98.90;;;;;;5041207;28;19917;-72
2022/06/21 14:12:14;;;;;;;;;;;20.80;97.90;;;;;;5023459;28;20285;-72
2022/06/21 14:14:46;;;;;;;;;;;20.80;97.50;;;;;;5043043;28;20293;-72
2022/06/21 14:17:22;;;;;;;;;;;20.80;99.90;;;;;;5021608;28;19925;-72
2022/06/21 14:19:50;;;;;;;;;;;20.80;99.90;;;;;;5026453;28;20377;-72
2022/06/21 14:22:19;;;;;;;;;;;20.70;99.30;;;;;;5045530;28;19928;-72
2022/06/21 14:24:51;;;;;;;;;;;20.60;99.90;;;;;;5029266;28;20393;-72
2022/06/21 14:27:46;;;;;;;;;;;20.60;96.10;;;;;;5030739;28;19962;-73
2022/06/21 14:30:15;;;;;;;;;;;20.70;99.90;;;;;;5040212;28;20028;-72
2022/06/21 14:32:46;;;;;;;;;;;20.70;98.50;;;;;;4997005;28;19918;-72
2022/06/21 14:35:16;;;;;;;;;;;20.70;99.90;;;;;;5045561;28;19918;-72
2022/06/21 14:37:45;;;;;;;;;;;20.70;99.40;;;;;;5028063;28;20384;-74
2022/06/21 14:40:10;;;;;;;;;;;20.60;99.90;;;;;;5011170;28;19948;-72
2022/06/21 14:42:40;;;;;;;;;;;20.70;99.90;;;;;;5029429;28;19921;-72
2022/06/21 14:45:19;;;;;;;;;;;20.70;99.90;;;;;;5030201;28;20285;-73
2022/06/21 14:47:56;;;;;;;;;;;20.70;99.90;;;;;;5028626;28;19925;-72
2022/06/21 14:50:25;;;;;;;;;;;20.70;99.90;;;;;;5044915;28;19967;-73
2022/06/21 14:53:04;;;;;;;;;;;20.70;99.90;;;;;;5045367;28;19922;-73
2022/06/21 14:55:37;;;;;;;;;;;20.70;99.90;;;;;;5013193;28;20012;-72
2022/06/21 14:58:06;;;;;;;;;;;20.70;99.60;;;;;;5028335;28;20317;-71
2022/06/21 15:00:51;;;;;;;;;;;20.70;99.90;;;;;;5037010;28;19928;-73